N535PT KSAN-KLAX
Flight info
| Callsign | N535PT |
|---|---|
| Flight time | 0h 24m |
| Altitude | 10000 |
| Route | CWARD2 SLI |
| Aircraft | C25C/M-SDE2E3FGHRWXY/LB1 |
Departure
| Time | 2026-04-26 18:24 |
|---|---|
| Airport | San Diego International Airport (KSAN) |
Arrival
| Time | 2026-04-26 18:48 |
|---|---|
| Airport | Los Angeles International Airport (KLAX) |
| Time | Latitude | Longitude | Altitude | Speed | Heading |
|---|---|---|---|---|---|
| 2026-04-26 18:09 | 32.73356 | -117.17901 | 19 ft | 0 kts | 184° |
| 2026-04-26 18:22 | 32.73355 | -117.17901 | 21 ft | 0 kts | 192° |
| 2026-04-26 18:22 | 32.73352 | -117.17912 | 20 ft | 14 kts | 258° |
| 2026-04-26 18:22 | 32.73291 | -117.17975 | 19 ft | 28 kts | 194° |
| 2026-04-26 18:23 | 32.73206 | -117.17880 | 16 ft | 25 kts | 104° |
| 2026-04-26 18:23 | 32.73147 | -117.17635 | 16 ft | 32 kts | 107° |
| 2026-04-26 18:23 | 32.73016 | -117.17554 | 17 ft | 19 kts | 250° |
| 2026-04-26 18:23 | 32.73082 | -117.17844 | 14 ft | 86 kts | 286° |
| 2026-04-26 18:24 | 32.73378 | -117.18887 | 208 ft | 165 kts | 289° |
| 2026-04-26 18:24 | 32.73814 | -117.20218 | 1184 ft | 186 kts | 291° |
| 2026-04-26 18:24 | 32.74466 | -117.21830 | 2017 ft | 238 kts | 297° |
| 2026-04-26 18:24 | 32.75341 | -117.23611 | 2870 ft | 261 kts | 300° |
| 2026-04-26 18:25 | 32.76380 | -117.25247 | 2752 ft | 247 kts | 315° |
| 2026-04-26 18:25 | 32.77732 | -117.26547 | 2992 ft | 234 kts | 317° |
| 2026-04-26 18:25 | 32.78798 | -117.27810 | 3279 ft | 207 kts | 308° |
| 2026-04-26 18:25 | 32.79614 | -117.29084 | 3558 ft | 189 kts | 303° |
| 2026-04-26 18:26 | 32.80427 | -117.30457 | 3850 ft | 223 kts | 303° |
| 2026-04-26 18:26 | 32.81409 | -117.32087 | 4169 ft | 246 kts | 305° |
| 2026-04-26 18:26 | 32.82448 | -117.33772 | 4484 ft | 259 kts | 304° |
| 2026-04-26 18:26 | 32.83165 | -117.34949 | 4706 ft | 265 kts | 304° |
| 2026-04-26 18:27 | 32.84246 | -117.36696 | 5020 ft | 259 kts | 304° |
| 2026-04-26 18:27 | 32.85293 | -117.38407 | 5326 ft | 253 kts | 304° |
| 2026-04-26 18:27 | 32.86322 | -117.40083 | 5620 ft | 249 kts | 304° |
| 2026-04-26 18:27 | 32.87331 | -117.41737 | 5926 ft | 245 kts | 304° |
| 2026-04-26 18:28 | 32.88358 | -117.43415 | 6225 ft | 257 kts | 304° |
| 2026-04-26 18:28 | 32.89430 | -117.45169 | 6544 ft | 267 kts | 304° |
| 2026-04-26 18:28 | 32.90535 | -117.46980 | 6840 ft | 269 kts | 304° |
| 2026-04-26 18:28 | 32.91630 | -117.48758 | 7137 ft | 262 kts | 304° |
| 2026-04-26 18:29 | 32.92674 | -117.50473 | 7427 ft | 256 kts | 304° |
| 2026-04-26 18:29 | 32.93717 | -117.52174 | 7727 ft | 254 kts | 304° |
| 2026-04-26 18:29 | 32.94767 | -117.53902 | 8029 ft | 261 kts | 304° |
| 2026-04-26 18:29 | 32.95853 | -117.55677 | 8337 ft | 267 kts | 304° |
| 2026-04-26 18:30 | 32.96942 | -117.57465 | 8647 ft | 271 kts | 304° |
| 2026-04-26 18:30 | 32.98058 | -117.59297 | 8964 ft | 274 kts | 304° |
| 2026-04-26 18:30 | 32.99187 | -117.61146 | 9281 ft | 277 kts | 304° |
| 2026-04-26 18:30 | 33.00322 | -117.63015 | 9602 ft | 278 kts | 304° |
| 2026-04-26 18:31 | 33.01465 | -117.64887 | 9870 ft | 281 kts | 304° |
| 2026-04-26 18:31 | 33.02627 | -117.66807 | 9943 ft | 289 kts | 304° |
| 2026-04-26 18:31 | 33.03813 | -117.68751 | 9966 ft | 297 kts | 304° |
| 2026-04-26 18:31 | 33.05038 | -117.70775 | 9967 ft | 303 kts | 304° |
| 2026-04-26 18:32 | 33.06305 | -117.72809 | 9971 ft | 308 kts | 308° |
| 2026-04-26 18:32 | 33.07936 | -117.74510 | 9975 ft | 314 kts | 318° |
| 2026-04-26 18:32 | 33.09600 | -117.76211 | 9976 ft | 317 kts | 316° |
| 2026-04-26 18:32 | 33.11275 | -117.77942 | 9978 ft | 319 kts | 316° |
| 2026-04-26 18:33 | 33.12967 | -117.79664 | 9974 ft | 321 kts | 317° |
| 2026-04-26 18:33 | 33.14679 | -117.81391 | 9975 ft | 322 kts | 317° |
| 2026-04-26 18:33 | 33.16390 | -117.83138 | 9976 ft | 323 kts | 316° |
| 2026-04-26 18:33 | 33.18103 | -117.84878 | 9976 ft | 324 kts | 317° |
| 2026-04-26 18:34 | 33.20060 | -117.86239 | 9967 ft | 331 kts | 335° |
| 2026-04-26 18:34 | 33.22292 | -117.86951 | 9969 ft | 328 kts | 343° |
| 2026-04-26 18:34 | 33.24462 | -117.87489 | 9966 ft | 318 kts | 345° |
| 2026-04-26 18:34 | 33.26602 | -117.87977 | 9958 ft | 309 kts | 344° |
| 2026-04-26 18:35 | 33.28682 | -117.88495 | 9955 ft | 302 kts | 343° |
| 2026-04-26 18:35 | 33.30730 | -117.89015 | 9950 ft | 304 kts | 343° |
| 2026-04-26 18:35 | 33.32856 | -117.89556 | 9949 ft | 320 kts | 344° |
| 2026-04-26 18:35 | 33.35083 | -117.90108 | 9958 ft | 333 kts | 344° |
| 2026-04-26 18:36 | 33.37391 | -117.90678 | 9971 ft | 343 kts | 344° |
| 2026-04-26 18:36 | 33.39655 | -117.91373 | 9972 ft | 323 kts | 338° |
| 2026-04-26 18:36 | 33.41729 | -117.92147 | 9975 ft | 302 kts | 339° |
| 2026-04-26 18:36 | 33.43687 | -117.92839 | 9965 ft | 286 kts | 338° |
| 2026-04-26 18:37 | 33.45551 | -117.93510 | 9956 ft | 274 kts | 338° |
| 2026-04-26 18:37 | 33.47340 | -117.94167 | 9959 ft | 264 kts | 338° |
| 2026-04-26 18:37 | 33.49078 | -117.94798 | 9958 ft | 258 kts | 338° |
| 2026-04-26 18:37 | 33.50774 | -117.95419 | 9963 ft | 252 kts | 338° |
| 2026-04-26 18:38 | 33.52439 | -117.96021 | 9961 ft | 248 kts | 338° |
| 2026-04-26 18:38 | 33.54077 | -117.96619 | 9965 ft | 244 kts | 338° |
| 2026-04-26 18:38 | 33.55716 | -117.97220 | 9962 ft | 255 kts | 337° |
| 2026-04-26 18:38 | 33.57503 | -117.97881 | 9966 ft | 281 kts | 338° |
| 2026-04-26 18:39 | 33.59442 | -117.98588 | 9981 ft | 300 kts | 338° |
| 2026-04-26 18:39 | 33.61499 | -117.99330 | 9982 ft | 316 kts | 339° |
| 2026-04-26 18:39 | 33.63647 | -118.00114 | 9985 ft | 328 kts | 339° |
| 2026-04-26 18:39 | 33.65860 | -118.00918 | 9988 ft | 332 kts | 339° |
| 2026-04-26 18:40 | 33.68025 | -118.01707 | 9972 ft | 319 kts | 339° |
| 2026-04-26 18:40 | 33.70125 | -118.02470 | 9973 ft | 311 kts | 338° |
| 2026-04-26 18:40 | 33.72146 | -118.03212 | 9978 ft | 305 kts | 339° |
| 2026-04-26 18:40 | 33.74205 | -118.03970 | 9735 ft | 317 kts | 338° |
| 2026-04-26 18:41 | 33.76327 | -118.04742 | 9476 ft | 306 kts | 339° |
| 2026-04-26 18:41 | 33.78257 | -118.05437 | 9207 ft | 279 kts | 339° |
| 2026-04-26 18:41 | 33.80083 | -118.06102 | 8898 ft | 270 kts | 338° |
| 2026-04-26 18:41 | 33.81887 | -118.06783 | 8374 ft | 272 kts | 338° |
| 2026-04-26 18:42 | 33.83693 | -118.07484 | 7860 ft | 273 kts | 338° |
| 2026-04-26 18:42 | 33.85454 | -118.08194 | 7314 ft | 260 kts | 337° |
| 2026-04-26 18:42 | 33.87152 | -118.08899 | 6602 ft | 256 kts | 337° |
| 2026-04-26 18:42 | 33.88816 | -118.09617 | 5839 ft | 253 kts | 336° |
| 2026-04-26 18:43 | 33.90453 | -118.10352 | 5115 ft | 249 kts | 336° |
| 2026-04-26 18:43 | 33.91991 | -118.11065 | 5003 ft | 223 kts | 335° |
| 2026-04-26 18:43 | 33.93260 | -118.11842 | 5023 ft | 194 kts | 321° |
| 2026-04-26 18:43 | 33.94260 | -118.13044 | 4085 ft | 214 kts | 309° |
| 2026-04-26 18:44 | 33.95250 | -118.14385 | 3550 ft | 212 kts | 306° |
| 2026-04-26 18:44 | 33.95767 | -118.15867 | 3638 ft | 183 kts | 283° |
| 2026-04-26 18:44 | 33.95937 | -118.17500 | 3556 ft | 227 kts | 272° |
| 2026-04-26 18:44 | 33.95866 | -118.19599 | 3667 ft | 257 kts | 265° |
| 2026-04-26 18:45 | 33.95604 | -118.21606 | 3409 ft | 232 kts | 258° |
| 2026-04-26 18:45 | 33.95273 | -118.23410 | 3079 ft | 206 kts | 259° |
| 2026-04-26 18:45 | 33.95062 | -118.25005 | 2915 ft | 183 kts | 265° |
| 2026-04-26 18:45 | 33.94915 | -118.26558 | 2728 ft | 185 kts | 263° |
| 2026-04-26 18:46 | 33.94771 | -118.28035 | 2492 ft | 170 kts | 266° |
| 2026-04-26 18:46 | 33.94667 | -118.29428 | 2283 ft | 163 kts | 264° |
| 2026-04-26 18:46 | 33.94509 | -118.30674 | 2091 ft | 129 kts | 262° |
| 2026-04-26 18:46 | 33.94384 | -118.31816 | 1786 ft | 147 kts | 264° |
| 2026-04-26 18:47 | 33.94294 | -118.32859 | 1421 ft | 117 kts | 262° |
| 2026-04-26 18:47 | 33.94190 | -118.33930 | 1173 ft | 127 kts | 263° |
| 2026-04-26 18:47 | 33.94089 | -118.35044 | 936 ft | 142 kts | 263° |
| 2026-04-26 18:47 | 33.93942 | -118.36225 | 685 ft | 127 kts | 263° |
| 2026-04-26 18:48 | 33.93855 | -118.37226 | 366 ft | 129 kts | 262° |
| 2026-04-26 18:48 | 33.93749 | -118.38178 | 206 ft | 119 kts | 264° |
| 2026-04-26 18:48 | 33.93665 | -118.39029 | 118 ft | 86 kts | 265° |
| 2026-04-26 18:48 | 33.93612 | -118.39507 | 119 ft | 43 kts | 265° |
| 2026-04-26 18:49 | 33.93556 | -118.39992 | 119 ft | 60 kts | 257° |
| 2026-04-26 18:49 | 33.93435 | -118.40276 | 119 ft | 10 kts | 189° |
| 2026-04-26 18:49 | 33.93422 | -118.40134 | 117 ft | 27 kts | 81° |
| 2026-04-26 18:49 | 33.93447 | -118.39912 | 119 ft | 27 kts | 82° |
| 2026-04-26 18:50 | 33.93406 | -118.39820 | 119 ft | 8 kts | 224° |
| 2026-04-26 18:50 | 33.93395 | -118.39905 | 119 ft | 9 kts | 223° |
| 2026-04-26 18:50 | 33.93377 | -118.39906 | 119 ft | 0 kts | 173° |